Terminal Aerodrome Forecast
Issued by NWS

Home | Current Version | Previous Version | Text Only | Print | Product List | Glossary Off
Versions: 1 2 3 4 5 6 7 8 9 10 11 12 13 14 15 16 17 18 19 20

000
FTUS43 KGRB 291730
TAFRHI
TAF
KRHI 291730Z 2918/3018 26011G20KT P6SM VCSH SCT024 OVC035
      TEMPO 2918/2922 4SM -SHRA OVC024
     FM300100 27007KT P6SM OVC023
     FM300700 27007KT P6SM BKN019
     FM301200 27008KT P6SM OVC017
     FM301600 27009KT P6SM OVC019=

USA.gov is the U.S. government's official web portal to all federal, state and local government web resources and services.